Weather History for KLXN - September, 2013

Change the Weather History Date:

Monday, September 16, 2013

  Actual Average Record
Temperature  
Mean Temperature 58 °F -  
Max Temperature 59 °F 74 °F 89 °F (2000)
Min Temperature 56 °F 48 °F 41 °F (2008)
Degree Days  
Heating Degree Days 8    
Growing Degree Days 8 (Base 50)    
Moisture  
Dew Point 54 °F    
Average Humidity 87    
Maximum Humidity 97    
Minimum Humidity 78    
Precipitation  
Precipitation 0.00 in - - ()
Sea Level Pressure  
Sea Level Pressure 30.25 in    
Wind  
Wind Speed 8 mph (ESE)    
Max Wind Speed 12 mph    
Max Gust Speed -    
Visibility 10 miles    
Events Rain    
Averages and records for this station are not official NWS values.
T = Trace of Precipitation, MM = Missing Value Source: NWS Daily Summary

Daily Weather History Graph

Daily Weather History Graph

Search for Another Location

Airport or City:

Trip Planner

Search our weather history database for the weather conditions in past years. The results will help you decide how hot, cold, wet, or windy it might be!

Date:

Astronomy

Sep. 16, 2013 Rise Set
Actual Time 7:21 AM CDT 7:45 PM CDT
Civil Twilight 6:53 AM CDT 8:13 PM CDT
Nautical Twilight 6:21 AM CDT 8:45 PM CDT
Astronomical Twilight 5:47 AM CDT 9:18 PM CDT
Moon 5:56 PM CDT (9/16) 4:08 AM CDT (9/16)
Length of Visible Light 13h 19m
Length of Day
12h 24m
Waxing Gibbous, 90% of the Moon is Illuminated
Sep 16
Waxing Gibbous
Sep 19
Full
Sep 26
Last Quarter
Oct 4
New
Oct 11
First Quarter

Hourly Weather History & Observations

Time (CDT) Temp. Dew Point Humidity Pressure Visibility Wind Dir Wind Speed Gust Speed Precip Events Conditions
12:15 AM 59.2 °F 53.8 °F 82% 30.27 in 10.0 mi ENE 9.2 mph - N/A   Mostly Cloudy
12:35 AM 59.0 °F 53.8 °F 83% 30.28 in 10.0 mi ENE 8.1 mph - N/A   Overcast
12:55 AM 59.0 °F 53.8 °F 83% 30.28 in 10.0 mi NE 6.9 mph - N/A   Overcast
1:15 AM 59.0 °F 53.8 °F 83% 30.28 in 10.0 mi ENE 8.1 mph - N/A Rain Light Rain
1:35 AM 58.1 °F 54.0 °F 86% 30.28 in 10.0 mi ENE 8.1 mph - N/A Rain Light Rain
1:55 AM 57.9 °F 54.0 °F 87% 30.29 in 10.0 mi ENE 10.4 mph - N/A Rain Rain
2:15 AM 57.7 °F 54.5 °F 89% 30.29 in 10.0 mi ENE 6.9 mph - N/A   Overcast
2:35 AM 57.7 °F 54.5 °F 89% 30.29 in 10.0 mi ENE 8.1 mph - N/A   Light Drizzle
2:55 AM 57.4 °F 54.3 °F 90% 30.28 in 10.0 mi ENE 6.9 mph - N/A   Overcast
3:15 AM 57.4 °F 54.5 °F 90% 30.28 in 10.0 mi ENE 6.9 mph - N/A   Overcast
3:35 AM 57.4 °F 54.5 °F 90% 30.27 in 10.0 mi ENE 9.2 mph - N/A   Overcast
3:55 AM 57.4 °F 54.3 °F 90% 30.27 in 10.0 mi ENE 6.9 mph - N/A   Overcast
4:15 AM 57.4 °F 54.5 °F 90% 30.27 in 10.0 mi East 6.9 mph - N/A   Unknown
4:35 AM 57.4 °F 54.5 °F 90% 30.28 in 10.0 mi ENE 5.8 mph - N/A   Overcast
4:55 AM 57.4 °F 54.5 °F 90% 30.28 in 10.0 mi East 4.6 mph - N/A   Overcast
5:15 AM 57.2 °F 54.3 °F 90% 30.28 in 10.0 mi ENE 5.8 mph - N/A   Overcast
5:35 AM 57.2 °F 54.5 °F 91% 30.27 in 10.0 mi ENE 5.8 mph - N/A   Overcast
5:55 AM 57.2 °F 54.1 °F 89% 30.28 in 10.0 mi ENE 6.9 mph - N/A   Overcast
6:15 AM 57.2 °F 54.0 °F 89% 30.28 in 10.0 mi East 6.9 mph - N/A   Overcast
6:35 AM 57.2 °F 53.8 °F 88% 30.28 in 10.0 mi East 5.8 mph - N/A   Overcast
6:55 AM 57.2 °F 54.0 °F 89% 30.28 in 10.0 mi East 4.6 mph - N/A   Overcast
7:15 AM 56.8 °F 54.0 °F 90% 30.29 in 10.0 mi East 5.8 mph - N/A   Overcast
7:35 AM 56.8 °F 53.8 °F 89% 30.30 in 10.0 mi East 5.8 mph - N/A   Overcast
7:55 AM 56.8 °F 53.6 °F 89% 30.31 in 10.0 mi East 5.8 mph - N/A   Overcast
8:15 AM 56.8 °F 53.6 °F 89% 30.31 in 10.0 mi East 5.8 mph - N/A   Overcast
8:35 AM 56.8 °F 53.6 °F 89% 30.31 in 10.0 mi East 4.6 mph - N/A   Overcast
8:55 AM 56.7 °F 53.6 °F 89% 30.31 in 7.0 mi East 8.1 mph - N/A   Overcast
9:15 AM 56.5 °F 53.6 °F 90% 30.31 in 10.0 mi East 6.9 mph - N/A   Overcast
9:35 AM 56.8 °F 53.6 °F 89% 30.31 in 10.0 mi East 5.8 mph - N/A   Overcast
9:55 AM 57.4 °F 53.6 °F 87% 30.31 in 10.0 mi East 8.1 mph - N/A   Overcast
10:15 AM 57.7 °F 52.9 °F 84% 30.30 in 10.0 mi ESE 9.2 mph - N/A   Overcast
10:35 AM 57.7 °F 52.9 °F 84% 30.31 in 10.0 mi ESE 9.2 mph - N/A   Overcast
10:55 AM 57.7 °F 52.7 °F 83% 30.30 in 10.0 mi East 6.9 mph - N/A   Overcast
11:15 AM 58.3 °F 52.9 °F 82% 30.29 in 10.0 mi East 10.4 mph - N/A   Overcast
11:35 AM 58.1 °F 52.3 °F 81% 30.29 in 10.0 mi East 9.2 mph - N/A   Overcast
11:55 AM 58.6 °F 52.2 °F 79% 30.29 in 10.0 mi ESE 10.4 mph - N/A   Overcast
12:15 PM 58.6 °F 52.3 °F 80% 30.29 in 10.0 mi East 5.8 mph - N/A   Overcast
12:35 PM 58.5 °F 52.2 °F 80% 30.28 in 10.0 mi East 11.5 mph - N/A   Overcast
12:55 PM 59.0 °F 52.5 °F 79% 30.28 in 10.0 mi East 6.9 mph - N/A   Overcast
1:15 PM 58.8 °F 52.2 °F 79% 30.27 in 10.0 mi ESE 9.2 mph - N/A   Overcast
1:35 PM 59.0 °F 52.0 °F 78% 30.27 in 10.0 mi ESE 8.1 mph - N/A   Overcast
1:55 PM 59.0 °F 52.0 °F 78% 30.27 in 10.0 mi ESE 9.2 mph - N/A   Overcast
2:15 PM 59.0 °F 52.5 °F 79% 30.26 in 10.0 mi ESE 8.1 mph - N/A   Overcast
2:35 PM 59.2 °F 52.2 °F 78% 30.25 in 10.0 mi ESE 10.4 mph - N/A   Overcast
2:55 PM 59.0 °F 52.3 °F 79% 30.24 in 10.0 mi ESE 9.2 mph - N/A   Overcast
3:15 PM 59.4 °F 52.3 °F 78% 30.24 in 10.0 mi SE 6.9 mph - N/A   Overcast
3:35 PM 59.0 °F 52.7 °F 80% 30.23 in 10.0 mi ESE 9.2 mph - N/A   Overcast
3:55 PM 59.2 °F 52.9 °F 80% 30.22 in 10.0 mi SE 9.2 mph - N/A   Overcast
4:15 PM 58.6 °F 53.1 °F 82% 30.22 in 10.0 mi SE 9.2 mph - N/A   Overcast
4:35 PM 58.5 °F 53.2 °F 83% 30.21 in 10.0 mi SE 9.2 mph - N/A   Overcast
4:55 PM 58.6 °F 53.1 °F 82% 30.21 in 10.0 mi ESE 10.4 mph - N/A   Overcast
5:15 PM 58.1 °F 53.2 °F 84% 30.20 in 10.0 mi ESE 9.2 mph - N/A   Overcast
5:35 PM 58.1 °F 53.6 °F 85% 30.20 in 10.0 mi SE 8.1 mph - N/A   Overcast
5:55 PM 57.7 °F 53.6 °F 86% 30.20 in 10.0 mi ESE 8.1 mph - N/A   Overcast
6:15 PM 57.9 °F 53.2 °F 84% 30.20 in 10.0 mi SSE 8.1 mph - N/A   Overcast
6:35 PM 57.7 °F 53.2 °F 85% 30.19 in 10.0 mi ESE 8.1 mph - N/A   Overcast
6:55 PM 57.2 °F 53.6 °F 88% 30.18 in 10.0 mi ESE 6.9 mph - N/A   Overcast
7:15 PM 57.2 °F 53.6 °F 88% 30.18 in 10.0 mi SE 8.1 mph - N/A   Overcast
7:35 PM 56.7 °F 53.6 °F 89% 30.18 in 10.0 mi SE 9.2 mph - N/A   Overcast
7:55 PM 56.5 °F 53.6 °F 90% 30.17 in 10.0 mi SE 8.1 mph - N/A   Overcast
8:15 PM 56.7 °F 53.6 °F 89% 30.17 in 10.0 mi SE 8.1 mph - N/A   Overcast
8:35 PM 56.3 °F 53.6 °F 91% 30.17 in 10.0 mi SE 9.2 mph - N/A   Overcast
8:55 PM 56.3 °F 53.6 °F 91% 30.17 in 10.0 mi SE 9.2 mph - N/A   Overcast
9:15 PM 56.3 °F 54.0 °F 92% 30.17 in 10.0 mi SSE 8.1 mph - N/A   Overcast
9:35 PM 56.3 °F 54.3 °F 93% 30.17 in 10.0 mi SSE 9.2 mph - N/A   Overcast
9:55 PM 56.5 °F 54.3 °F 92% 30.17 in 10.0 mi SSE 10.4 mph - N/A   Overcast
10:15 PM 56.3 °F 54.1 °F 92% 30.17 in 10.0 mi SSE 9.2 mph - N/A   Overcast
10:35 PM 56.3 °F 54.5 °F 94% 30.17 in 7.0 mi South 10.4 mph - N/A   Overcast
10:55 PM 56.3 °F 54.7 °F 94% 30.17 in 5.0 mi SSE 10.4 mph - N/A   Overcast
11:15 PM 56.3 °F 54.9 °F 95% 30.17 in 5.0 mi SSE 10.4 mph - N/A   Overcast
11:35 PM 56.3 °F 55.0 °F 96% 30.17 in 3.0 mi South 10.4 mph - N/A   Overcast
11:55 PM 56.3 °F 55.4 °F 97% 30.17 in 4.0 mi South 11.5 mph - N/A   Overcast